sensor_id;sensor_type;location;lat;lon;timestamp;pressure;altitude;pressure_sealevel;temperature;humidity
77749;BME280;66938;52.084;5.228;2023-12-04T00:00:30;101407.0;;;2.36;100.0
77749;BME280;66938;52.084;5.228;2023-12-04T00:02:07;101409.0;;;2.44;100.0
77749;BME280;66938;52.084;5.228;2023-12-04T00:05:22;101400.0;;;2.38;100.0
77749;BME280;66938;52.084;5.228;2023-12-04T00:06:59;101402.0;;;2.39;100.0
77749;BME280;66938;52.084;5.228;2023-12-04T00:08:36;101401.0;;;2.33;100.0
77749;BME280;66938;52.084;5.228;2023-12-04T00:10:13;101394.0;;;2.37;100.0
77749;BME280;66938;52.084;5.228;2023-12-04T00:13:26;101392.0;;;2.35;100.0
77749;BME280;66938;52.084;5.228;2023-12-04T00:15:03;101389.0;;;2.4;100.0
77749;BME280;66938;52.084;5.228;2023-12-04T00:16:41;101390.0;;;2.42;100.0
77749;BME280;66938;52.084;5.228;2023-12-04T00:19:55;101383.0;;;2.44;100.0
77749;BME280;66938;52.084;5.228;2023-12-04T00:21:31;101380.0;;;2.42;100.0
77749;BME280;66938;52.084;5.228;2023-12-04T00:23:08;101377.0;;;2.41;100.0
77749;BME280;66938;52.084;5.228;2023-12-04T00:24:44;101378.0;;;2.44;100.0
77749;BME280;66938;52.084;5.228;2023-12-04T00:27:58;101370.0;;;2.46;100.0
77749;BME280;66938;52.084;5.228;2023-12-04T00:29:35;101372.0;;;2.44;100.0
77749;BME280;66938;52.084;5.228;2023-12-04T00:31:12;101375.0;;;2.44;100.0
77749;BME280;66938;52.084;5.228;2023-12-04T00:34:24;101366.0;;;2.46;100.0
77749;BME280;66938;52.084;5.228;2023-12-04T00:36:02;101367.0;;;2.39;100.0
77749;BME280;66938;52.084;5.228;2023-12-04T00:37:38;101376.0;;;2.35;100.0
77749;BME280;66938;52.084;5.228;2023-12-04T00:40:52;101371.0;;;2.39;100.0
77749;BME280;66938;52.084;5.228;2023-12-04T00:42:29;101367.0;;;2.44;100.0
77749;BME280;66938;52.084;5.228;2023-12-04T00:44:05;101362.0;;;2.5;100.0
77749;BME280;66938;52.084;5.228;2023-12-04T00:45:41;101356.0;;;2.48;100.0
77749;BME280;66938;52.084;5.228;2023-12-04T00:48:54;101348.0;;;2.48;100.0
77749;BME280;66938;52.084;5.228;2023-12-04T00:50:30;101352.0;;;2.5;100.0
77749;BME280;66938;52.084;5.228;2023-12-04T00:52:07;101355.0;;;2.5;100.0
77749;BME280;66938;52.084;5.228;2023-12-04T00:55:20;101357.0;;;2.48;100.0
77749;BME280;66938;52.084;5.228;2023-12-04T00:56:57;101357.0;;;2.48;100.0
77749;BME280;66938;52.084;5.228;2023-12-04T00:58:33;101353.0;;;2.54;100.0
77749;BME280;66938;52.084;5.228;2023-12-04T01:01:48;101355.0;;;2.46;100.0
77749;BME280;66938;52.084;5.228;2023-12-04T01:03:24;101353.0;;;2.48;100.0
77749;BME280;66938;52.084;5.228;2023-12-04T01:05:00;101352.0;;;2.5;100.0
77749;BME280;66938;52.084;5.228;2023-12-04T01:06:36;101347.0;;;2.48;100.0
77749;BME280;66938;52.084;5.228;2023-12-04T01:09:49;101347.0;;;2.52;100.0
77749;BME280;66938;52.084;5.228;2023-12-04T01:11:25;101341.0;;;2.54;100.0
77749;BME280;66938;52.084;5.228;2023-12-04T01:13:01;101334.0;;;2.56;100.0
77749;BME280;66938;52.084;5.228;2023-12-04T01:16:14;101330.0;;;2.57;100.0
77749;BME280;66938;52.084;5.228;2023-12-04T01:17:51;101330.0;;;2.56;100.0
77749;BME280;66938;52.084;5.228;2023-12-04T01:19:27;101328.0;;;2.52;100.0
77749;BME280;66938;52.084;5.228;2023-12-04T01:22:42;101321.0;;;2.52;100.0
77749;BME280;66938;52.084;5.228;2023-12-04T01:24:19;101322.0;;;2.56;100.0
77749;BME280;66938;52.084;5.228;2023-12-04T01:25:55;101318.0;;;2.56;100.0
77749;BME280;66938;52.084;5.228;2023-12-04T01:27:32;101316.0;;;2.59;100.0
77749;BME280;66938;52.084;5.228;2023-12-04T01:30:44;101315.0;;;2.5;100.0
77749;BME280;66938;52.084;5.228;2023-12-04T01:32:21;101309.0;;;2.46;100.0
77749;BME280;66938;52.084;5.228;2023-12-04T01:33:58;101311.0;;;2.5;100.0
77749;BME280;66938;52.084;5.228;2023-12-04T01:37:12;101308.0;;;2.46;100.0
77749;BME280;66938;52.084;5.228;2023-12-04T01:38:48;101305.0;;;2.41;100.0
77749;BME280;66938;52.084;5.228;2023-12-04T01:40:24;101299.0;;;2.48;100.0
77749;BME280;66938;52.084;5.228;2023-12-04T01:43:38;101301.0;;;2.48;100.0
77749;BME280;66938;52.084;5.228;2023-12-04T01:45:16;101300.0;;;2.42;100.0
77749;BME280;66938;52.084;5.228;2023-12-04T01:46:52;101305.0;;;2.46;100.0
77749;BME280;66938;52.084;5.228;2023-12-04T01:48:30;101306.0;;;2.46;100.0
77749;BME280;66938;52.084;5.228;2023-12-04T01:51:45;101306.0;;;2.5;100.0
77749;BME280;66938;52.084;5.228;2023-12-04T01:53:23;101300.0;;;2.44;100.0
77749;BME280;66938;52.084;5.228;2023-12-04T01:55:00;101299.0;;;2.46;100.0
77749;BME280;66938;52.084;5.228;2023-12-04T01:58:14;101293.0;;;2.48;100.0
77749;BME280;66938;52.084;5.228;2023-12-04T01:59:51;101291.0;;;2.4;100.0
77749;BME280;66938;52.084;5.228;2023-12-04T02:01:28;101288.0;;;2.46;100.0
77749;BME280;66938;52.084;5.228;2023-12-04T02:03:06;101286.0;;;2.48;100.0
77749;BME280;66938;52.084;5.228;2023-12-04T02:06:21;101282.0;;;2.48;100.0
77749;BME280;66938;52.084;5.228;2023-12-04T02:08:02;101278.0;;;2.48;100.0
77749;BME280;66938;52.084;5.228;2023-12-04T02:09:39;101274.0;;;2.46;100.0
77749;BME280;66938;52.084;5.228;2023-12-04T02:12:52;101278.0;;;2.46;100.0
77749;BME280;66938;52.084;5.228;2023-12-04T02:14:29;101271.0;;;2.48;100.0
77749;BME280;66938;52.084;5.228;2023-12-04T02:16:09;101270.0;;;2.52;100.0
77749;BME280;66938;52.084;5.228;2023-12-04T02:17:47;101266.0;;;2.5;100.0
77749;BME280;66938;52.084;5.228;2023-12-04T02:21:01;101263.0;;;2.57;100.0
77749;BME280;66938;52.084;5.228;2023-12-04T02:22:38;101267.0;;;2.58;100.0
77749;BME280;66938;52.084;5.228;2023-12-04T02:24:15;101258.0;;;2.57;100.0
77749;BME280;66938;52.084;5.228;2023-12-04T02:27:38;101256.0;;;2.59;100.0
77749;BME280;66938;52.084;5.228;2023-12-04T02:29:23;101249.0;;;2.52;100.0
77749;BME280;66938;52.084;5.228;2023-12-04T02:31:04;101255.0;;;2.46;100.0
77749;BME280;66938;52.084;5.228;2023-12-04T02:32:45;101247.0;;;2.52;100.0
77749;BME280;66938;52.084;5.228;2023-12-04T02:36:02;101246.0;;;2.5;100.0
77749;BME280;66938;52.084;5.228;2023-12-04T02:37:41;101245.0;;;2.5;100.0
77749;BME280;66938;52.084;5.228;2023-12-04T02:39:20;101241.0;;;2.52;100.0
77749;BME280;66938;52.084;5.228;2023-12-04T02:40:57;101239.0;;;2.54;100.0
77749;BME280;66938;52.084;5.228;2023-12-04T02:44:12;101230.0;;;2.56;100.0
77749;BME280;66938;52.084;5.228;2023-12-04T02:45:48;101232.0;;;2.54;100.0
77749;BME280;66938;52.084;5.228;2023-12-04T02:47:24;101233.0;;;2.52;100.0
77749;BME280;66938;52.084;5.228;2023-12-04T02:50:37;101227.0;;;2.54;100.0
77749;BME280;66938;52.084;5.228;2023-12-04T02:52:13;101225.0;;;2.52;100.0
77749;BME280;66938;52.084;5.228;2023-12-04T02:53:50;101222.0;;;2.42;100.0
77749;BME280;66938;52.084;5.228;2023-12-04T02:55:28;101220.0;;;2.42;100.0
77749;BME280;66938;52.084;5.228;2023-12-04T02:58:41;101217.0;;;2.48;100.0
77749;BME280;66938;52.084;5.228;2023-12-04T03:00:18;101213.0;;;2.48;100.0
77749;BME280;66938;52.084;5.228;2023-12-04T03:01:54;101209.0;;;2.46;100.0
77749;BME280;66938;52.084;5.228;2023-12-04T03:05:06;101206.0;;;2.48;100.0
77749;BME280;66938;52.084;5.228;2023-12-04T03:06:42;101198.0;;;2.38;100.0
77749;BME280;66938;52.084;5.228;2023-12-04T03:08:18;101195.0;;;2.5;100.0
77749;BME280;66938;52.084;5.228;2023-12-04T03:11:31;101195.0;;;2.4;100.0
77749;BME280;66938;52.084;5.228;2023-12-04T03:13:07;101193.0;;;2.44;100.0
77749;BME280;66938;52.084;5.228;2023-12-04T03:14:43;101188.0;;;2.42;100.0
77749;BME280;66938;52.084;5.228;2023-12-04T03:16:19;101185.0;;;2.5;100.0
77749;BME280;66938;52.084;5.228;2023-12-04T03:19:31;101182.0;;;2.5;100.0
77749;BME280;66938;52.084;5.228;2023-12-04T03:21:07;101180.0;;;2.54;100.0
77749;BME280;66938;52.084;5.228;2023-12-04T03:22:43;101180.0;;;2.48;100.0
77749;BME280;66938;52.084;5.228;2023-12-04T03:25:55;101177.0;;;2.48;100.0
77749;BME280;66938;52.084;5.228;2023-12-04T03:27:32;101174.0;;;2.46;100.0
77749;BME280;66938;52.084;5.228;2023-12-04T03:29:08;101170.0;;;2.52;100.0
77749;BME280;66938;52.084;5.228;2023-12-04T03:32:20;101168.0;;;2.54;100.0
77749;BME280;66938;52.084;5.228;2023-12-04T03:33:56;101163.0;;;2.5;100.0
77749;BME280;66938;52.084;5.228;2023-12-04T03:35:32;101164.0;;;2.46;100.0
77749;BME280;66938;52.084;5.228;2023-12-04T03:37:08;101161.0;;;2.5;100.0
77749;BME280;66938;52.084;5.228;2023-12-04T03:40:21;101161.0;;;2.48;100.0
77749;BME280;66938;52.084;5.228;2023-12-04T03:41:57;101153.0;;;2.31;100.0
77749;BME280;66938;52.084;5.228;2023-12-04T03:43:33;101148.0;;;2.44;100.0
77749;BME280;66938;52.084;5.228;2023-12-04T03:46:45;101149.0;;;2.44;100.0
77749;BME280;66938;52.084;5.228;2023-12-04T03:48:21;101144.0;;;2.37;100.0
77749;BME280;66938;52.084;5.228;2023-12-04T03:49:57;101148.0;;;2.37;100.0
77749;BME280;66938;52.084;5.228;2023-12-04T03:53:10;101142.0;;;2.46;100.0
77749;BME280;66938;52.084;5.228;2023-12-04T03:54:45;101136.0;;;2.46;100.0
77749;BME280;66938;52.084;5.228;2023-12-04T03:56:22;101132.0;;;2.44;100.0
77749;BME280;66938;52.084;5.228;2023-12-04T03:59:35;101135.0;;;2.46;100.0
77749;BME280;66938;52.084;5.228;2023-12-04T04:01:11;101131.0;;;2.46;100.0
77749;BME280;66938;52.084;5.228;2023-12-04T04:02:47;101124.0;;;2.46;100.0
77749;BME280;66938;52.084;5.228;2023-12-04T04:04:23;101124.0;;;2.38;100.0
77749;BME280;66938;52.084;5.228;2023-12-04T04:07:35;101120.0;;;2.38;100.0
77749;BME280;66938;52.084;5.228;2023-12-04T04:09:11;101119.0;;;2.39;100.0
77749;BME280;66938;52.084;5.228;2023-12-04T04:10:47;101118.0;;;2.38;100.0
77749;BME280;66938;52.084;5.228;2023-12-04T04:14:00;101111.0;;;2.34;100.0
77749;BME280;66938;52.084;5.228;2023-12-04T04:15:36;101111.0;;;2.44;100.0
77749;BME280;66938;52.084;5.228;2023-12-04T04:17:12;101112.0;;;2.46;100.0
77749;BME280;66938;52.084;5.228;2023-12-04T04:20:24;101114.0;;;2.46;100.0
77749;BME280;66938;52.084;5.228;2023-12-04T04:22:00;101103.0;;;2.46;100.0
77749;BME280;66938;52.084;5.228;2023-12-04T04:23:36;101106.0;;;2.5;100.0
77749;BME280;66938;52.084;5.228;2023-12-04T04:26:48;101105.0;;;2.44;100.0
77749;BME280;66938;52.084;5.228;2023-12-04T04:28:24;101100.0;;;2.46;100.0
77749;BME280;66938;52.084;5.228;2023-12-04T04:30:01;101097.0;;;2.37;100.0
77749;BME280;66938;52.084;5.228;2023-12-04T04:31:38;101096.0;;;2.48;100.0
77749;BME280;66938;52.084;5.228;2023-12-04T04:34:50;101089.0;;;2.4;100.0
77749;BME280;66938;52.084;5.228;2023-12-04T04:36:26;101087.0;;;2.44;100.0
77749;BME280;66938;52.084;5.228;2023-12-04T04:38:03;101082.0;;;2.42;100.0
77749;BME280;66938;52.084;5.228;2023-12-04T04:41:15;101078.0;;;2.44;100.0
77749;BME280;66938;52.084;5.228;2023-12-04T04:42:51;101088.0;;;2.46;100.0
77749;BME280;66938;52.084;5.228;2023-12-04T04:44:27;101086.0;;;2.4;100.0
77749;BME280;66938;52.084;5.228;2023-12-04T04:47:40;101089.0;;;2.44;100.0
77749;BME280;66938;52.084;5.228;2023-12-04T04:49:16;101088.0;;;2.46;100.0
77749;BME280;66938;52.084;5.228;2023-12-04T04:50:52;101083.0;;;2.4;100.0
77749;BME280;66938;52.084;5.228;2023-12-04T04:52:28;101087.0;;;2.44;100.0
77749;BME280;66938;52.084;5.228;2023-12-04T04:55:40;101088.0;;;2.38;100.0
77749;BME280;66938;52.084;5.228;2023-12-04T04:57:16;101086.0;;;2.32;100.0
77749;BME280;66938;52.084;5.228;2023-12-04T04:58:52;101078.0;;;2.38;100.0
77749;BME280;66938;52.084;5.228;2023-12-04T05:02:04;101076.0;;;2.42;100.0
77749;BME280;66938;52.084;5.228;2023-12-04T05:03:41;101070.0;;;2.35;100.0
77749;BME280;66938;52.084;5.228;2023-12-04T05:05:17;101069.0;;;2.37;100.0
77749;BME280;66938;52.084;5.228;2023-12-04T05:08:29;101066.0;;;2.44;100.0
77749;BME280;66938;52.084;5.228;2023-12-04T05:10:06;101069.0;;;2.39;100.0
77749;BME280;66938;52.084;5.228;2023-12-04T05:11:42;101066.0;;;2.35;100.0
77749;BME280;66938;52.084;5.228;2023-12-04T05:14:54;101066.0;;;2.31;100.0
77749;BME280;66938;52.084;5.228;2023-12-04T05:16:30;101067.0;;;2.27;100.0
77749;BME280;66938;52.084;5.228;2023-12-04T05:18:06;101064.0;;;2.41;100.0
77749;BME280;66938;52.084;5.228;2023-12-04T05:19:43;101060.0;;;2.39;100.0
77749;BME280;66938;52.084;5.228;2023-12-04T05:22:55;101060.0;;;2.35;100.0
77749;BME280;66938;52.084;5.228;2023-12-04T05:24:32;101059.0;;;2.46;100.0
77749;BME280;66938;52.084;5.228;2023-12-04T05:26:08;101056.0;;;2.48;100.0
77749;BME280;66938;52.084;5.228;2023-12-04T05:29:20;101052.0;;;2.46;100.0
77749;BME280;66938;52.084;5.228;2023-12-04T05:30:56;101050.0;;;2.5;100.0
77749;BME280;66938;52.084;5.228;2023-12-04T05:32:33;101051.0;;;2.48;100.0
77749;BME280;66938;52.084;5.228;2023-12-04T05:35:46;101041.0;;;2.46;100.0
77749;BME280;66938;52.084;5.228;2023-12-04T05:37:23;101032.0;;;2.5;100.0
77749;BME280;66938;52.084;5.228;2023-12-04T05:38:59;101032.0;;;2.38;100.0
77749;BME280;66938;52.084;5.228;2023-12-04T05:40:35;101030.0;;;2.42;100.0
77749;BME280;66938;52.084;5.228;2023-12-04T05:43:47;101025.0;;;2.31;100.0
77749;BME280;66938;52.084;5.228;2023-12-04T05:45:23;101022.0;;;2.42;100.0
77749;BME280;66938;52.084;5.228;2023-12-04T05:46:59;101018.0;;;2.48;100.0
77749;BME280;66938;52.084;5.228;2023-12-04T05:50:12;101017.0;;;2.38;100.0
77749;BME280;66938;52.084;5.228;2023-12-04T05:51:48;101020.0;;;2.27;100.0
77749;BME280;66938;52.084;5.228;2023-12-04T05:53:24;101018.0;;;2.41;100.0
77749;BME280;66938;52.084;5.228;2023-12-04T05:56:36;101018.0;;;2.48;100.0
77749;BME280;66938;52.084;5.228;2023-12-04T05:58:12;101009.0;;;2.46;100.0
77749;BME280;66938;52.084;5.228;2023-12-04T05:59:48;101011.0;;;2.44;100.0
77749;BME280;66938;52.084;5.228;2023-12-04T06:03:00;101015.0;;;2.46;100.0
77749;BME280;66938;52.084;5.228;2023-12-04T06:04:37;101011.0;;;2.44;100.0
77749;BME280;66938;52.084;5.228;2023-12-04T06:06:13;101005.0;;;2.52;100.0
77749;BME280;66938;52.084;5.228;2023-12-04T06:07:49;101012.0;;;2.36;100.0
77749;BME280;66938;52.084;5.228;2023-12-04T06:11:01;101007.0;;;2.5;100.0
77749;BME280;66938;52.084;5.228;2023-12-04T06:12:37;101006.0;;;2.54;100.0
77749;BME280;66938;52.084;5.228;2023-12-04T06:14:13;100998.0;;;2.54;100.0
77749;BME280;66938;52.084;5.228;2023-12-04T06:17:25;100998.0;;;2.57;100.0
77749;BME280;66938;52.084;5.228;2023-12-04T06:19:02;100997.0;;;2.5;100.0
77749;BME280;66938;52.084;5.228;2023-12-04T06:20:38;100998.0;;;2.48;100.0
77749;BME280;66938;52.084;5.228;2023-12-04T06:23:51;101001.0;;;2.31;100.0
77749;BME280;66938;52.084;5.228;2023-12-04T06:25:29;100999.0;;;2.35;100.0
77749;BME280;66938;52.084;5.228;2023-12-04T06:27:06;100996.0;;;2.48;100.0
77749;BME280;66938;52.084;5.228;2023-12-04T06:28:43;100990.0;;;2.52;100.0
77749;BME280;66938;52.084;5.228;2023-12-04T06:31:57;100980.0;;;2.57;100.0
77749;BME280;66938;52.084;5.228;2023-12-04T06:33:33;100977.0;;;2.46;100.0
77749;BME280;66938;52.084;5.228;2023-12-04T06:35:11;100980.0;;;2.5;100.0
77749;BME280;66938;52.084;5.228;2023-12-04T06:38:24;100973.0;;;2.44;100.0
77749;BME280;66938;52.084;5.228;2023-12-04T06:40:03;100976.0;;;2.56;100.0
77749;BME280;66938;52.084;5.228;2023-12-04T06:41:40;100967.0;;;2.62;100.0
77749;BME280;66938;52.084;5.228;2023-12-04T06:44:53;100964.0;;;2.57;100.0
77749;BME280;66938;52.084;5.228;2023-12-04T06:46:30;100969.0;;;2.57;100.0
77749;BME280;66938;52.084;5.228;2023-12-04T06:48:13;100957.0;;;2.56;100.0
77749;BME280;66938;52.084;5.228;2023-12-04T06:49:50;100955.0;;;2.39;100.0
77749;BME280;66938;52.084;5.228;2023-12-04T06:53:03;100957.0;;;2.5;100.0
77749;BME280;66938;52.084;5.228;2023-12-04T06:54:39;100951.0;;;2.52;100.0
77749;BME280;66938;52.084;5.228;2023-12-04T06:56:15;100949.0;;;2.33;100.0
77749;BME280;66938;52.084;5.228;2023-12-04T06:59:27;100950.0;;;2.5;100.0
77749;BME280;66938;52.084;5.228;2023-12-04T07:01:03;100940.0;;;2.54;100.0
77749;BME280;66938;52.084;5.228;2023-12-04T07:02:39;100938.0;;;2.61;100.0
77749;BME280;66938;52.084;5.228;2023-12-04T07:04:16;100937.0;;;2.61;100.0
77749;BME280;66938;52.084;5.228;2023-12-04T07:07:27;100941.0;;;2.54;100.0
77749;BME280;66938;52.084;5.228;2023-12-04T07:09:04;100932.0;;;2.58;100.0
77749;BME280;66938;52.084;5.228;2023-12-04T07:10:41;100932.0;;;2.65;100.0
77749;BME280;66938;52.084;5.228;2023-12-04T07:13:53;100933.0;;;2.64;100.0
77749;BME280;66938;52.084;5.228;2023-12-04T07:15:29;100930.0;;;2.68;100.0
77749;BME280;66938;52.084;5.228;2023-12-04T07:17:05;100932.0;;;2.71;100.0
77749;BME280;66938;52.084;5.228;2023-12-04T07:20:17;100928.0;;;2.66;100.0
77749;BME280;66938;52.084;5.228;2023-12-04T07:21:54;100925.0;;;2.61;100.0
77749;BME280;66938;52.084;5.228;2023-12-04T07:23:29;100926.0;;;2.64;100.0
77749;BME280;66938;52.084;5.228;2023-12-04T07:26:42;100931.0;;;2.65;100.0
77749;BME280;66938;52.084;5.228;2023-12-04T07:28:18;100932.0;;;2.77;100.0
77749;BME280;66938;52.084;5.228;2023-12-04T07:29:54;100924.0;;;2.63;100.0
77749;BME280;66938;52.084;5.228;2023-12-04T07:31:30;100931.0;;;2.73;100.0
77749;BME280;66938;52.084;5.228;2023-12-04T07:34:42;100936.0;;;2.73;100.0
77749;BME280;66938;52.084;5.228;2023-12-04T07:36:18;100935.0;;;2.78;100.0
77749;BME280;66938;52.084;5.228;2023-12-04T07:37:54;100933.0;;;2.61;100.0
77749;BME280;66938;52.084;5.228;2023-12-04T07:41:07;100930.0;;;2.7;100.0
77749;BME280;66938;52.084;5.228;2023-12-04T07:42:43;100924.0;;;2.77;100.0
77749;BME280;66938;52.084;5.228;2023-12-04T07:44:19;100925.0;;;2.8;100.0
77749;BME280;66938;52.084;5.228;2023-12-04T07:47:31;100922.0;;;2.81;100.0
77749;BME280;66938;52.084;5.228;2023-12-04T07:49:07;100923.0;;;2.81;100.0
77749;BME280;66938;52.084;5.228;2023-12-04T07:50:43;100928.0;;;2.81;100.0
77749;BME280;66938;52.084;5.228;2023-12-04T07:53:55;100922.0;;;2.81;100.0
77749;BME280;66938;52.084;5.228;2023-12-04T07:55:31;100917.0;;;2.74;100.0
77749;BME280;66938;52.084;5.228;2023-12-04T07:57:07;100918.0;;;2.76;100.0
77749;BME280;66938;52.084;5.228;2023-12-04T07:58:44;100913.0;;;2.81;100.0
77749;BME280;66938;52.084;5.228;2023-12-04T08:01:56;100915.0;;;2.79;100.0
77749;BME280;66938;52.084;5.228;2023-12-04T08:03:32;100913.0;;;2.69;100.0
77749;BME280;66938;52.084;5.228;2023-12-04T08:05:08;100917.0;;;2.67;100.0
77749;BME280;66938;52.084;5.228;2023-12-04T08:08:20;100910.0;;;2.77;100.0
77749;BME280;66938;52.084;5.228;2023-12-04T08:09:56;100921.0;;;2.74;100.0
77749;BME280;66938;52.084;5.228;2023-12-04T08:11:32;100918.0;;;2.85;100.0
77749;BME280;66938;52.084;5.228;2023-12-04T08:14:44;100925.0;;;2.84;100.0
77749;BME280;66938;52.084;5.228;2023-12-04T08:16:20;100925.0;;;2.89;100.0
77749;BME280;66938;52.084;5.228;2023-12-04T08:17:57;100926.0;;;2.85;100.0
77749;BME280;66938;52.084;5.228;2023-12-04T08:19:33;100918.0;;;2.79;100.0
77749;BME280;66938;52.084;5.228;2023-12-04T08:22:45;100921.0;;;2.8;100.0
77749;BME280;66938;52.084;5.228;2023-12-04T08:24:21;100922.0;;;2.84;100.0
77749;BME280;66938;52.084;5.228;2023-12-04T08:25:57;100916.0;;;2.83;100.0
77749;BME280;66938;52.084;5.228;2023-12-04T08:29:09;100913.0;;;2.85;100.0
77749;BME280;66938;52.084;5.228;2023-12-04T08:30:46;100914.0;;;2.93;100.0
77749;BME280;66938;52.084;5.228;2023-12-04T08:32:22;100914.0;;;2.98;100.0
77749;BME280;66938;52.084;5.228;2023-12-04T08:35:34;100908.0;;;2.89;100.0
77749;BME280;66938;52.084;5.228;2023-12-04T08:37:10;100903.0;;;2.85;100.0
77749;BME280;66938;52.084;5.228;2023-12-04T08:38:46;100899.0;;;2.89;100.0
77749;BME280;66938;52.084;5.228;2023-12-04T08:41:58;100900.0;;;2.84;100.0
77749;BME280;66938;52.084;5.228;2023-12-04T08:43:34;100895.0;;;2.96;100.0
77749;BME280;66938;52.084;5.228;2023-12-04T08:45:10;100886.0;;;2.9;100.0
77749;BME280;66938;52.084;5.228;2023-12-04T08:46:47;100892.0;;;2.91;100.0
77749;BME280;66938;52.084;5.228;2023-12-04T08:50:00;100882.0;;;2.8;100.0
77749;BME280;66938;52.084;5.228;2023-12-04T08:51:36;100872.0;;;2.77;100.0
77749;BME280;66938;52.084;5.228;2023-12-04T08:53:12;100875.0;;;2.84;100.0
77749;BME280;66938;52.084;5.228;2023-12-04T08:56:24;100873.0;;;2.96;100.0
77749;BME280;66938;52.084;5.228;2023-12-04T08:58:00;100873.0;;;2.97;100.0
77749;BME280;66938;52.084;5.228;2023-12-04T08:59:36;100859.0;;;3.01;100.0
77749;BME280;66938;52.084;5.228;2023-12-04T09:02:48;100859.0;;;3.04;100.0
77749;BME280;66938;52.084;5.228;2023-12-04T09:04:25;100873.0;;;3.06;100.0
77749;BME280;66938;52.084;5.228;2023-12-04T09:06:01;100865.0;;;2.98;100.0
77749;BME280;66938;52.084;5.228;2023-12-04T09:09:13;100866.0;;;3.03;100.0
77749;BME280;66938;52.084;5.228;2023-12-04T09:10:49;100865.0;;;3.03;100.0
77749;BME280;66938;52.084;5.228;2023-12-04T09:12:25;100860.0;;;3.05;100.0
77749;BME280;66938;52.084;5.228;2023-12-04T09:14:01;100856.0;;;3.06;100.0
77749;BME280;66938;52.084;5.228;2023-12-04T09:17:13;100849.0;;;3.07;100.0
77749;BME280;66938;52.084;5.228;2023-12-04T09:18:51;100851.0;;;3.14;100.0
77749;BME280;66938;52.084;5.228;2023-12-04T09:20:27;100852.0;;;3.08;100.0
77749;BME280;66938;52.084;5.228;2023-12-04T09:23:39;100853.0;;;3.1;100.0
77749;BME280;66938;52.084;5.228;2023-12-04T09:25:15;100847.0;;;3.13;100.0
77749;BME280;66938;52.084;5.228;2023-12-04T09:26:51;100848.0;;;2.98;100.0
77749;BME280;66938;52.084;5.228;2023-12-04T09:30:04;100844.0;;;3.19;100.0
77749;BME280;66938;52.084;5.228;2023-12-04T09:31:40;100847.0;;;3.23;100.0
77749;BME280;66938;52.084;5.228;2023-12-04T09:33:17;100847.0;;;3.24;100.0
77749;BME280;66938;52.084;5.228;2023-12-04T09:34:52;100843.0;;;3.36;100.0
77749;BME280;66938;52.084;5.228;2023-12-04T09:38:05;100848.0;;;3.31;100.0
77749;BME280;66938;52.084;5.228;2023-12-04T09:39:41;100847.0;;;3.4;100.0
77749;BME280;66938;52.084;5.228;2023-12-04T09:41:18;100853.0;;;3.28;100.0
77749;BME280;66938;52.084;5.228;2023-12-04T09:44:32;100850.0;;;3.2;100.0
77749;BME280;66938;52.084;5.228;2023-12-04T09:46:09;100852.0;;;3.35;100.0
77749;BME280;66938;52.084;5.228;2023-12-04T09:47:47;100849.0;;;3.48;100.0
77749;BME280;66938;52.084;5.228;2023-12-04T09:51:06;100860.0;;;3.14;99.54
77749;BME280;66938;52.084;5.228;2023-12-04T09:52:43;100853.0;;;3.34;100.0
77749;BME280;66938;52.084;5.228;2023-12-04T09:54:19;100855.0;;;3.29;99.7
77749;BME280;66938;52.084;5.228;2023-12-04T09:55:57;100855.0;;;3.38;100.0
77749;BME280;66938;52.084;5.228;2023-12-04T09:59:13;100846.0;;;3.5;100.0
77749;BME280;66938;52.084;5.228;2023-12-04T10:00:52;100842.0;;;3.53;99.3
77749;BME280;66938;52.084;5.228;2023-12-04T10:02:29;100843.0;;;3.4;100.0
77749;BME280;66938;52.084;5.228;2023-12-04T10:05:44;100844.0;;;3.55;100.0
77749;BME280;66938;52.084;5.228;2023-12-04T10:07:20;100842.0;;;3.62;100.0
77749;BME280;66938;52.084;5.228;2023-12-04T10:08:56;100832.0;;;3.66;99.93
77749;BME280;66938;52.084;5.228;2023-12-04T10:10:32;100830.0;;;3.66;98.6
77749;BME280;66938;52.084;5.228;2023-12-04T10:13:45;100830.0;;;3.69;98.73
77749;BME280;66938;52.084;5.228;2023-12-04T10:15:21;100822.0;;;3.64;98.59
77749;BME280;66938;52.084;5.228;2023-12-04T10:16:57;100825.0;;;3.53;98.31
77749;BME280;66938;52.084;5.228;2023-12-04T10:20:11;100817.0;;;3.61;97.55
77749;BME280;66938;52.084;5.228;2023-12-04T10:21:48;100815.0;;;3.54;99.07
77749;BME280;66938;52.084;5.228;2023-12-04T10:23:37;100814.0;;;3.67;99.82
77749;BME280;66938;52.084;5.228;2023-12-04T10:25:14;100809.0;;;3.78;98.92
77749;BME280;66938;52.084;5.228;2023-12-04T10:28:27;100802.0;;;3.69;97.56
77749;BME280;66938;52.084;5.228;2023-12-04T10:30:04;100799.0;;;3.84;98.56
77749;BME280;66938;52.084;5.228;2023-12-04T10:31:40;100798.0;;;3.79;100.0
77749;BME280;66938;52.084;5.228;2023-12-04T10:34:54;100794.0;;;3.73;97.07
77749;BME280;66938;52.084;5.228;2023-12-04T10:36:30;100787.0;;;3.84;96.65
77749;BME280;66938;52.084;5.228;2023-12-04T10:38:07;100785.0;;;3.54;98.37
77749;BME280;66938;52.084;5.228;2023-12-04T10:39:46;100781.0;;;3.78;97.3
77749;BME280;66938;52.084;5.228;2023-12-04T10:43:28;100770.0;;;3.79;99.09
77749;BME280;66938;52.084;5.228;2023-12-04T10:45:05;100769.0;;;3.77;97.72
77749;BME280;66938;52.084;5.228;2023-12-04T10:46:42;100767.0;;;3.75;95.89
77749;BME280;66938;52.084;5.228;2023-12-04T10:48:19;100762.0;;;3.93;96.23
77749;BME280;66938;52.084;5.228;2023-12-04T10:51:31;100758.0;;;3.94;96.18
77749;BME280;66938;52.084;5.228;2023-12-04T10:53:08;100755.0;;;3.84;95.24
77749;BME280;66938;52.084;5.228;2023-12-04T10:54:45;100745.0;;;4.01;99.44
77749;BME280;66938;52.084;5.228;2023-12-04T10:58:07;100743.0;;;4.08;95.81
77749;BME280;66938;52.084;5.228;2023-12-04T10:59:44;100740.0;;;3.94;95.32
77749;BME280;66938;52.084;5.228;2023-12-04T11:01:22;100740.0;;;4.2;95.27
77749;BME280;66938;52.084;5.228;2023-12-04T11:03:03;100736.0;;;3.96;95.84
77749;BME280;66938;52.084;5.228;2023-12-04T11:06:20;100731.0;;;4.01;95.19
77749;BME280;66938;52.084;5.228;2023-12-04T11:07:58;100730.0;;;4.12;95.33
77749;BME280;66938;52.084;5.228;2023-12-04T11:09:38;100730.0;;;4.2;95.34
77749;BME280;66938;52.084;5.228;2023-12-04T11:11:19;100730.0;;;4.17;98.4
77749;BME280;66938;52.084;5.228;2023-12-04T11:14:49;100725.0;;;4.12;95.5